createdAt,value
2017-06-21T00:00:55.567Z,19.50
2017-06-21T00:03:23.886Z,19.50
2017-06-21T00:05:51.386Z,19.50
2017-06-21T00:08:18.898Z,19.50
2017-06-21T00:10:46.427Z,19.50
2017-06-21T00:13:13.930Z,19.50
2017-06-21T00:15:41.437Z,19.50
2017-06-21T00:18:08.944Z,19.40
2017-06-21T00:20:36.438Z,19.20
2017-06-21T00:23:03.956Z,19.20
2017-06-21T00:25:31.469Z,19.20
2017-06-21T00:27:58.986Z,19.20
2017-06-21T00:30:26.486Z,19.10
2017-06-21T00:32:54.022Z,19.10
2017-06-21T00:35:21.610Z,19.20
2017-06-21T00:37:49.240Z,19.10
2017-06-21T00:40:16.748Z,19.00
2017-06-21T00:42:45.032Z,18.90
2017-06-21T00:45:13.299Z,18.90
2017-06-21T00:47:41.591Z,18.90
2017-06-21T00:50:09.869Z,19.00
2017-06-21T00:52:37.360Z,18.90
2017-06-21T00:55:04.950Z,18.90
2017-06-21T00:57:32.460Z,19.00
2017-06-21T00:59:59.957Z,18.90
2017-06-21T01:02:27.475Z,18.90
2017-06-21T01:04:54.986Z,19.00
2017-06-21T01:07:22.506Z,18.90
2017-06-21T01:09:50.005Z,18.80
2017-06-21T01:12:17.524Z,18.80
2017-06-21T01:14:45.051Z,18.80
2017-06-21T01:17:13.323Z,18.90
2017-06-21T01:19:41.602Z,18.90
2017-06-21T01:22:09.875Z,18.80
2017-06-21T01:24:38.146Z,18.80
2017-06-21T01:27:05.662Z,18.80
2017-06-21T01:29:33.179Z,18.80
2017-06-21T01:32:00.705Z,18.80
2017-06-21T01:34:28.233Z,18.80
2017-06-21T01:36:55.738Z,18.70
2017-06-21T01:39:23.240Z,18.70
2017-06-21T01:41:50.772Z,18.70
2017-06-21T01:44:19.059Z,18.50
2017-06-21T01:46:47.353Z,18.40
2017-06-21T01:49:14.863Z,18.40
2017-06-21T01:51:42.383Z,18.40
2017-06-21T01:54:09.922Z,18.40
2017-06-21T01:56:37.443Z,18.40
2017-06-21T01:59:04.964Z,18.40
2017-06-21T02:01:32.474Z,18.40
2017-06-21T02:03:59.993Z,18.30
2017-06-21T02:06:27.494Z,18.20
2017-06-21T02:08:54.982Z,18.10
2017-06-21T02:11:22.522Z,18.10
2017-06-21T02:13:50.835Z,18.20
2017-06-21T02:16:18.390Z,18.20
2017-06-21T02:18:45.913Z,18.10
2017-06-21T02:21:13.403Z,18.10
2017-06-21T02:23:40.935Z,18.20
2017-06-21T02:26:08.435Z,18.20
2017-06-21T02:28:35.936Z,18.10
2017-06-21T02:31:03.481Z,18.00
2017-06-21T02:33:30.981Z,18.00
2017-06-21T02:35:58.495Z,18.00
2017-06-21T02:38:25.989Z,17.90
2017-06-21T02:40:54.279Z,17.80
2017-06-21T02:43:21.890Z,17.80
2017-06-21T02:45:49.379Z,17.80
2017-06-21T02:48:16.901Z,17.60
2017-06-21T02:50:44.421Z,17.50
2017-06-21T02:53:11.946Z,17.30
2017-06-21T02:55:39.470Z,17.30
2017-06-21T02:58:06.974Z,17.30
2017-06-21T03:00:34.494Z,17.30
2017-06-21T03:03:02.009Z,17.40
2017-06-21T03:05:30.295Z,17.40
2017-06-21T03:07:57.809Z,17.40
2017-06-21T03:10:25.314Z,17.50
2017-06-21T03:12:52.834Z,17.50
2017-06-21T03:15:32.059Z,17.50
2017-06-21T03:17:59.655Z,17.50
2017-06-21T03:20:27.943Z,17.40
2017-06-21T03:22:55.483Z,17.40
2017-06-21T03:25:22.988Z,17.50
2017-06-21T03:27:50.498Z,17.40
2017-06-21T03:30:18.011Z,17.40
2017-06-21T03:32:45.560Z,17.30
2017-06-21T03:35:13.051Z,17.30
2017-06-21T03:37:40.552Z,17.20
2017-06-21T03:40:08.852Z,17.00
2017-06-21T03:42:36.356Z,17.00
2017-06-21T03:45:03.941Z,17.00
2017-06-21T03:47:32.262Z,16.90
2017-06-21T03:49:59.777Z,16.80
2017-06-21T03:52:27.289Z,16.90
2017-06-21T03:54:54.800Z,16.90
2017-06-21T03:57:23.058Z,16.70
2017-06-21T03:59:50.574Z,16.70
2017-06-21T04:02:18.081Z,16.80
2017-06-21T04:04:45.595Z,16.80
2017-06-21T04:07:13.103Z,16.80
2017-06-21T04:09:41.380Z,16.80
2017-06-21T04:12:08.880Z,16.70
2017-06-21T04:14:36.390Z,16.80
2017-06-21T04:17:03.897Z,16.70
2017-06-21T04:19:31.385Z,16.70
2017-06-21T04:21:58.907Z,16.60
2017-06-21T04:24:26.434Z,16.60
2017-06-21T04:26:53.930Z,16.70
2017-06-21T04:29:21.436Z,16.80
2017-06-21T04:31:48.949Z,16.80
2017-06-21T04:34:16.472Z,16.80
2017-06-21T04:36:43.956Z,16.90
2017-06-21T04:39:15.289Z,16.90
2017-06-21T04:41:42.847Z,16.90
2017-06-21T04:44:11.251Z,17.00
2017-06-21T04:46:38.803Z,17.00
2017-06-21T04:49:06.306Z,17.00
2017-06-21T04:51:33.811Z,17.00
2017-06-21T04:54:01.323Z,17.00
2017-06-21T04:56:28.817Z,17.00
2017-06-21T04:58:57.074Z,17.00
2017-06-21T05:01:24.571Z,17.00
2017-06-21T05:03:52.088Z,17.10
2017-06-21T05:06:19.586Z,17.20
2017-06-21T05:08:47.129Z,17.20
2017-06-21T05:11:15.413Z,17.70
2017-06-21T05:13:43.671Z,18.30
2017-06-21T05:16:11.194Z,18.30
2017-06-21T05:18:38.710Z,18.50
2017-06-21T05:21:06.206Z,18.50
2017-06-21T05:23:33.853Z,18.40
2017-06-21T05:26:01.352Z,18.20
2017-06-21T05:28:28.862Z,18.10
2017-06-21T05:30:56.383Z,18.00
2017-06-21T05:33:24.214Z,18.00
2017-06-21T05:35:52.622Z,17.90
2017-06-21T05:38:20.243Z,17.70
2017-06-21T05:40:47.751Z,17.40
2017-06-21T05:43:15.251Z,17.50
2017-06-21T05:45:42.775Z,17.50
2017-06-21T05:48:10.264Z,17.60
2017-06-21T05:50:37.762Z,17.70
2017-06-21T05:53:05.274Z,17.70
2017-06-21T05:55:32.819Z,17.70
2017-06-21T05:58:00.327Z,17.70
2017-06-21T06:00:27.836Z,17.60
2017-06-21T06:03:15.313Z,17.70
2017-06-21T06:05:43.377Z,17.80
2017-06-21T06:08:10.906Z,17.70
2017-06-21T06:10:39.189Z,17.90
2017-06-21T06:13:07.445Z,17.90
2017-06-21T06:15:35.056Z,17.90
2017-06-21T06:18:02.580Z,17.80
2017-06-21T06:20:30.847Z,17.80
2017-06-21T06:22:59.121Z,18.00
2017-06-21T06:25:26.681Z,17.90
2017-06-21T06:27:54.227Z,18.10
2017-06-21T06:30:21.751Z,18.00
2017-06-21T06:32:49.305Z,17.90
2017-06-21T06:35:16.855Z,17.80
2017-06-21T06:37:44.364Z,17.60
2017-06-21T06:40:11.860Z,17.70
2017-06-21T06:42:39.442Z,17.70
2017-06-21T06:45:06.948Z,17.80
2017-06-21T06:47:34.468Z,18.00
2017-06-21T06:50:02.004Z,18.10
2017-06-21T06:52:29.525Z,18.10
2017-06-21T06:54:57.092Z,18.00
2017-06-21T06:57:24.612Z,17.90
2017-06-21T06:59:52.152Z,17.70
2017-06-21T07:02:19.704Z,17.50
2017-06-21T07:04:47.213Z,17.60
2017-06-21T07:07:14.713Z,17.80
2017-06-21T07:09:42.325Z,17.90
2017-06-21T07:12:09.814Z,18.00
2017-06-21T07:14:37.482Z,18.10
2017-06-21T07:17:05.026Z,18.20
2017-06-21T07:19:32.546Z,18.30
2017-06-21T07:22:00.969Z,18.20
2017-06-21T07:24:28.550Z,18.40
2017-06-21T07:26:56.051Z,18.40
2017-06-21T07:29:23.574Z,18.40
2017-06-21T07:31:51.886Z,18.50
2017-06-21T07:34:20.060Z,18.50
2017-06-21T07:36:47.649Z,18.50
2017-06-21T07:39:15.597Z,18.50
2017-06-21T07:41:43.103Z,18.40
2017-06-21T07:44:11.660Z,18.50
2017-06-21T07:46:39.222Z,18.40
2017-06-21T07:49:06.747Z,18.50
2017-06-21T07:51:34.263Z,18.40
2017-06-21T07:54:01.772Z,18.50
2017-06-21T07:56:29.299Z,18.50
2017-06-21T07:58:57.607Z,18.40
2017-06-21T08:01:25.098Z,18.40
2017-06-21T08:03:52.622Z,18.50
2017-06-21T08:06:20.881Z,18.60
2017-06-21T08:08:48.400Z,18.60
2017-06-21T08:11:17.726Z,18.70
2017-06-21T08:13:45.319Z,18.70
2017-06-21T08:16:12.819Z,18.80
2017-06-21T08:18:40.338Z,18.90
2017-06-21T08:21:07.853Z,19.00
2017-06-21T08:23:35.407Z,19.20
2017-06-21T08:26:03.701Z,19.00
2017-06-21T08:28:31.971Z,19.00
2017-06-21T08:31:00.255Z,19.10
2017-06-21T08:33:28.543Z,19.10
2017-06-21T08:35:56.058Z,19.10
2017-06-21T08:38:23.562Z,19.10
2017-06-21T08:40:51.075Z,19.20
2017-06-21T08:43:18.589Z,19.20
2017-06-21T08:45:46.187Z,19.30
2017-06-21T08:48:13.691Z,19.30
2017-06-21T08:50:41.958Z,19.40
2017-06-21T08:53:10.272Z,19.40
2017-06-21T08:55:37.786Z,19.40
2017-06-21T08:58:05.290Z,19.60
2017-06-21T09:00:32.789Z,19.60
2017-06-21T09:03:00.292Z,19.60
2017-06-21T09:05:27.893Z,19.50
2017-06-21T09:07:55.404Z,19.60
2017-06-21T09:10:23.718Z,19.50
2017-06-21T09:12:51.250Z,19.50
2017-06-21T09:15:18.766Z,19.50
2017-06-21T09:17:46.285Z,19.60
2017-06-21T09:20:13.788Z,19.60
2017-06-21T09:22:41.308Z,19.60
2017-06-21T09:25:08.809Z,19.60
2017-06-21T09:27:36.386Z,19.80
2017-06-21T09:30:03.896Z,19.80
2017-06-21T09:32:31.533Z,19.90
2017-06-21T09:34:59.186Z,20.00
2017-06-21T09:37:26.711Z,19.90
2017-06-21T09:39:54.217Z,20.00
2017-06-21T09:42:21.720Z,20.00
2017-06-21T09:44:49.457Z,20.10
2017-06-21T09:47:17.017Z,20.10
2017-06-21T09:49:44.511Z,20.20
2017-06-21T09:52:12.046Z,20.30
2017-06-21T09:54:39.546Z,20.40
2017-06-21T09:57:07.828Z,20.60
2017-06-21T09:59:36.117Z,20.70
2017-06-21T10:02:03.695Z,20.70
2017-06-21T10:04:31.266Z,20.90
2017-06-21T10:06:58.758Z,21.10
2017-06-21T10:09:26.296Z,21.30
2017-06-21T10:11:54.121Z,21.30
2017-06-21T10:14:21.677Z,21.30
2017-06-21T10:16:50.122Z,21.20
2017-06-21T10:19:17.644Z,21.20
2017-06-21T10:21:45.165Z,21.30
2017-06-21T10:24:12.802Z,21.50
2017-06-21T10:26:40.306Z,21.70
2017-06-21T10:29:07.818Z,21.80
2017-06-21T10:31:35.321Z,22.00
2017-06-21T10:34:03.620Z,22.10
2017-06-21T10:36:31.157Z,22.10
2017-06-21T10:38:58.655Z,22.10
2017-06-21T10:41:26.200Z,22.30
2017-06-21T10:43:53.713Z,23.00
2017-06-21T10:46:21.217Z,24.00
2017-06-21T10:48:48.721Z,25.00
2017-06-21T10:51:16.287Z,26.00
2017-06-21T10:53:43.808Z,26.90
2017-06-21T10:56:12.181Z,28.60
2017-06-21T10:58:39.676Z,29.60
2017-06-21T11:01:07.985Z,30.70
2017-06-21T11:03:35.538Z,30.70
2017-06-21T11:06:04.751Z,31.70
2017-06-21T11:08:32.275Z,31.70
2017-06-21T11:10:59.803Z,31.90
2017-06-21T11:13:27.297Z,32.90
2017-06-21T11:15:54.804Z,33.80
2017-06-21T11:18:22.327Z,33.00
2017-06-21T11:20:50.613Z,32.10
2017-06-21T11:23:18.888Z,32.20
2017-06-21T11:25:47.176Z,33.30
2017-06-21T11:28:14.692Z,33.30
2017-06-21T11:30:42.286Z,34.50
2017-06-21T11:33:09.814Z,34.40
2017-06-21T11:35:37.340Z,35.20
2017-06-21T11:38:04.885Z,36.00
2017-06-21T11:40:32.391Z,36.40
2017-06-21T11:42:59.924Z,36.30
2017-06-21T11:45:27.480Z,36.00
2017-06-21T11:47:54.991Z,35.40
2017-06-21T11:50:22.497Z,35.20
2017-06-21T11:52:50.047Z,35.90
2017-06-21T11:55:17.574Z,36.20
2017-06-21T11:57:45.094Z,36.00
2017-06-21T12:00:12.702Z,35.90
2017-06-21T12:02:40.256Z,36.30
2017-06-21T12:05:07.826Z,36.00
2017-06-21T12:07:35.407Z,36.30
2017-06-21T12:10:02.902Z,37.10
2017-06-21T12:12:30.435Z,36.90
2017-06-21T12:14:57.940Z,36.70
2017-06-21T12:17:25.454Z,36.80
2017-06-21T12:19:52.971Z,36.60
2017-06-21T12:22:20.459Z,36.70
2017-06-21T12:24:48.045Z,36.80
2017-06-21T12:27:15.589Z,36.30
2017-06-21T12:29:43.114Z,36.10
2017-06-21T12:32:10.738Z,35.70
2017-06-21T12:34:38.456Z,35.20
2017-06-21T12:37:05.971Z,34.60
2017-06-21T12:39:33.483Z,33.60
2017-06-21T12:42:01.007Z,32.50
2017-06-21T12:44:29.126Z,32.00
2017-06-21T12:46:56.665Z,31.60
2017-06-21T12:49:24.169Z,30.80
2017-06-21T12:51:51.725Z,30.00
2017-06-21T12:54:19.239Z,29.30
2017-06-21T12:56:46.781Z,29.10
2017-06-21T12:59:14.317Z,28.80
2017-06-21T13:01:41.802Z,28.10
2017-06-21T13:04:09.321Z,27.80
2017-06-21T13:06:36.827Z,27.80
2017-06-21T13:09:04.530Z,27.80
2017-06-21T13:11:32.038Z,27.80
2017-06-21T13:13:59.607Z,27.60
2017-06-21T13:16:27.902Z,27.50
2017-06-21T13:18:55.404Z,27.50
2017-06-21T13:21:22.935Z,27.70
2017-06-21T13:23:50.478Z,27.90
2017-06-21T13:26:17.984Z,28.10
2017-06-21T13:28:45.498Z,27.90
2017-06-21T13:31:13.008Z,27.80
2017-06-21T13:33:40.531Z,27.70
2017-06-21T13:36:08.098Z,27.50
2017-06-21T13:38:35.595Z,26.90
2017-06-21T13:41:03.162Z,26.80
2017-06-21T13:43:30.674Z,26.60
2017-06-21T13:46:02.007Z,26.70
2017-06-21T13:48:29.780Z,26.50
2017-06-21T13:50:57.278Z,26.30
2017-06-21T13:53:24.836Z,26.30
2017-06-21T13:55:52.355Z,26.50
2017-06-21T13:58:19.911Z,26.50
2017-06-21T14:00:47.407Z,26.20
2017-06-21T14:03:14.936Z,26.40
2017-06-21T14:05:42.451Z,26.80
2017-06-21T14:08:09.946Z,27.10
2017-06-21T14:10:37.439Z,27.20
2017-06-21T14:13:04.965Z,27.40
2017-06-21T14:15:32.468Z,27.70
2017-06-21T14:18:00.741Z,27.40
2017-06-21T14:20:28.236Z,27.30
2017-06-21T14:22:55.750Z,27.30
2017-06-21T14:25:23.245Z,27.00
2017-06-21T14:27:50.851Z,26.90
2017-06-21T14:30:18.376Z,26.80
2017-06-21T14:32:46.634Z,26.80
2017-06-21T14:35:14.175Z,26.80
2017-06-21T14:37:41.678Z,26.90
2017-06-21T14:40:09.195Z,27.00
2017-06-21T14:42:36.697Z,27.30
2017-06-21T14:45:04.981Z,27.50
2017-06-21T14:47:33.269Z,27.30
2017-06-21T14:50:00.803Z,27.30
2017-06-21T14:52:28.320Z,27.10
2017-06-21T14:54:55.841Z,27.30
2017-06-21T14:57:23.373Z,27.40
2017-06-21T14:59:50.907Z,27.20
2017-06-21T15:02:18.426Z,27.40
2017-06-21T15:04:45.955Z,27.70
2017-06-21T15:07:13.466Z,28.20
2017-06-21T15:09:41.046Z,28.00
2017-06-21T15:12:09.603Z,28.20
2017-06-21T15:14:38.161Z,29.10
2017-06-21T15:17:05.790Z,29.20
2017-06-21T15:19:34.095Z,29.80
2017-06-21T15:22:02.362Z,30.40
2017-06-21T15:24:30.632Z,30.90
2017-06-21T15:26:58.990Z,31.20
2017-06-21T15:29:26.519Z,31.10
2017-06-21T15:31:54.070Z,31.70
2017-06-21T15:34:21.587Z,31.60
2017-06-21T15:36:49.131Z,32.20
2017-06-21T15:39:17.466Z,32.00
2017-06-21T15:41:45.008Z,32.00
2017-06-21T15:44:12.534Z,32.50
2017-06-21T15:46:40.040Z,32.20
2017-06-21T15:49:07.551Z,31.40
2017-06-21T15:51:35.202Z,31.00
2017-06-21T15:54:02.710Z,31.10
2017-06-21T15:56:30.272Z,31.50
2017-06-21T15:58:57.853Z,32.20
2017-06-21T16:01:25.372Z,32.30
2017-06-21T16:03:53.645Z,32.10
2017-06-21T16:06:22.036Z,31.90
2017-06-21T16:08:49.590Z,31.90
2017-06-21T16:11:17.886Z,31.90
2017-06-21T16:13:45.488Z,31.90
2017-06-21T16:16:13.016Z,31.80
2017-06-21T16:18:40.703Z,31.80
2017-06-21T16:21:08.213Z,32.20
2017-06-21T16:23:35.734Z,32.70
2017-06-21T16:26:03.261Z,32.90
2017-06-21T16:28:30.776Z,32.70
2017-06-21T16:30:58.320Z,32.50
2017-06-21T16:33:26.513Z,32.20
2017-06-21T16:35:54.223Z,31.80
2017-06-21T16:38:21.753Z,31.10
2017-06-21T16:40:50.041Z,30.40
2017-06-21T16:43:17.806Z,30.30
2017-06-21T16:45:45.314Z,30.30
2017-06-21T16:48:13.040Z,30.40
2017-06-21T16:50:40.635Z,30.60
2017-06-21T16:53:08.139Z,30.20
2017-06-21T16:55:35.667Z,29.50
2017-06-21T16:58:03.175Z,30.20
2017-06-21T17:00:30.714Z,30.80
2017-06-21T17:02:59.008Z,30.60
2017-06-21T17:05:26.514Z,30.60
2017-06-21T17:07:54.014Z,30.00
2017-06-21T17:10:21.546Z,29.50
2017-06-21T17:12:49.041Z,29.20
2017-06-21T17:15:17.302Z,28.70
2017-06-21T17:17:45.574Z,29.20
2017-06-21T17:20:13.078Z,29.20
2017-06-21T17:22:40.584Z,29.50
2017-06-21T17:25:08.121Z,30.10
2017-06-21T17:27:35.645Z,30.50
2017-06-21T17:30:03.178Z,30.10
2017-06-21T17:32:31.068Z,30.20
2017-06-21T17:34:58.568Z,30.50
2017-06-21T17:37:26.879Z,30.50
2017-06-21T17:39:55.199Z,30.30
2017-06-21T17:42:22.715Z,30.40
2017-06-21T17:44:50.329Z,30.70
2017-06-21T17:47:17.842Z,30.60
2017-06-21T17:49:45.382Z,29.80
2017-06-21T17:52:12.908Z,29.20
2017-06-21T17:54:40.415Z,28.70
2017-06-21T17:57:07.956Z,28.00
2017-06-21T17:59:35.479Z,27.60
2017-06-21T18:02:02.982Z,27.30
2017-06-21T18:04:30.492Z,26.90
2017-06-21T18:06:58.038Z,26.60
2017-06-21T18:09:25.633Z,26.30
2017-06-21T18:11:53.129Z,26.20
2017-06-21T18:14:20.646Z,26.30
2017-06-21T18:16:48.171Z,26.20
2017-06-21T18:19:15.685Z,26.20
2017-06-21T18:21:43.194Z,26.10
2017-06-21T18:24:10.742Z,26.10
2017-06-21T18:26:38.267Z,26.00
2017-06-21T18:29:05.787Z,25.80
2017-06-21T18:31:33.278Z,25.60
2017-06-21T18:34:00.814Z,25.60
2017-06-21T18:36:28.308Z,25.50
2017-06-21T18:38:55.827Z,25.40
2017-06-21T18:41:23.322Z,25.30
2017-06-21T18:43:50.839Z,25.10
2017-06-21T18:46:18.342Z,25.00
2017-06-21T18:48:45.876Z,24.90
2017-06-21T18:51:13.398Z,24.80
2017-06-21T18:53:40.903Z,24.90
2017-06-21T18:56:08.455Z,24.80
2017-06-21T18:58:35.975Z,24.80
2017-06-21T19:01:03.490Z,24.80
2017-06-21T19:03:30.994Z,24.70
2017-06-21T19:06:00.102Z,24.50
2017-06-21T19:08:27.647Z,24.50
2017-06-21T19:10:55.173Z,24.40
2017-06-21T19:13:22.689Z,24.30
2017-06-21T19:15:50.191Z,24.20
2017-06-21T19:18:17.732Z,24.20
2017-06-21T19:20:45.234Z,24.10
2017-06-21T19:23:13.627Z,24.00
2017-06-21T19:25:41.331Z,23.90
2017-06-21T19:28:08.855Z,23.90
2017-06-21T19:30:36.359Z,23.90
2017-06-21T19:33:03.858Z,23.90
2017-06-21T19:35:31.360Z,23.90
2017-06-21T19:37:58.877Z,23.90
2017-06-21T19:40:26.402Z,23.90
2017-06-21T19:42:53.923Z,23.80
2017-06-21T19:45:21.421Z,23.80
2017-06-21T19:47:49.234Z,23.70
2017-06-21T19:50:16.766Z,23.70
2017-06-21T19:52:44.270Z,23.60
2017-06-21T19:55:12.225Z,23.60
2017-06-21T19:57:39.734Z,23.50
2017-06-21T20:00:08.141Z,23.50
2017-06-21T20:02:35.675Z,23.50
2017-06-21T20:05:03.310Z,23.40
2017-06-21T20:07:30.810Z,23.40
2017-06-21T20:09:58.336Z,23.20
2017-06-21T20:12:26.053Z,23.10
2017-06-21T20:14:53.577Z,23.10
2017-06-21T20:17:21.162Z,23.00
2017-06-21T20:19:48.728Z,23.10
2017-06-21T20:22:17.040Z,23.00
2017-06-21T20:24:44.598Z,23.00
2017-06-21T20:27:12.128Z,22.90
2017-06-21T20:29:40.439Z,22.80
2017-06-21T20:32:07.973Z,22.80
2017-06-21T20:34:35.517Z,22.80
2017-06-21T20:37:03.813Z,22.50
2017-06-21T20:39:31.338Z,22.50
2017-06-21T20:41:58.832Z,22.50
2017-06-21T20:44:27.422Z,22.50
2017-06-21T20:46:54.940Z,22.60
2017-06-21T20:49:22.493Z,22.60
2017-06-21T20:51:50.031Z,22.70
2017-06-21T20:54:17.582Z,22.70
2017-06-21T20:56:45.142Z,22.70
2017-06-21T20:59:12.692Z,22.50
2017-06-21T21:01:40.206Z,22.50
2017-06-21T21:04:07.886Z,22.30
2017-06-21T21:06:36.197Z,22.40
2017-06-21T21:09:03.777Z,22.30
2017-06-21T21:11:31.272Z,22.50
2017-06-21T21:13:58.804Z,22.40
2017-06-21T21:16:26.319Z,22.50
2017-06-21T21:18:53.902Z,22.50
2017-06-21T21:21:21.393Z,22.30
2017-06-21T21:23:48.909Z,22.30
2017-06-21T21:26:16.438Z,22.20
2017-06-21T21:28:44.176Z,22.30
2017-06-21T21:31:11.699Z,22.10
2017-06-21T21:33:39.223Z,22.10
2017-06-21T21:36:07.525Z,22.00
2017-06-21T21:38:35.099Z,22.00
2017-06-21T21:41:02.632Z,21.90
2017-06-21T21:43:30.133Z,21.90
2017-06-21T21:45:57.655Z,21.90
2017-06-21T21:48:25.199Z,21.90
2017-06-21T21:50:53.468Z,22.10
2017-06-21T21:53:21.761Z,22.20
2017-06-21T21:55:49.271Z,22.10
2017-06-21T21:58:16.766Z,22.00
2017-06-21T22:00:44.290Z,21.90
2017-06-21T22:03:11.798Z,22.00
2017-06-21T22:05:39.303Z,22.00
2017-06-21T22:08:06.818Z,22.00
2017-06-21T22:10:34.379Z,21.80
2017-06-21T22:13:01.874Z,21.80
2017-06-21T22:15:29.366Z,21.90
2017-06-21T22:17:56.893Z,21.80
2017-06-21T22:20:24.411Z,21.80
2017-06-21T22:22:52.673Z,21.70
2017-06-21T22:25:20.356Z,21.70
2017-06-21T22:27:47.880Z,21.70
2017-06-21T22:30:15.372Z,21.60
2017-06-21T22:32:42.887Z,21.50
2017-06-21T22:35:10.385Z,21.50
2017-06-21T22:37:38.632Z,21.40
2017-06-21T22:40:06.124Z,21.30
2017-06-21T22:42:33.650Z,21.20
2017-06-21T22:45:01.140Z,21.20
2017-06-21T22:47:28.651Z,21.20
2017-06-21T22:49:56.180Z,21.20
2017-06-21T22:52:23.887Z,21.20
2017-06-21T22:54:51.425Z,21.20
2017-06-21T22:57:18.920Z,21.20
2017-06-21T22:59:46.430Z,21.20
2017-06-21T23:02:13.916Z,21.20
2017-06-21T23:04:41.431Z,21.30
2017-06-21T23:07:08.960Z,21.40
2017-06-21T23:09:37.222Z,21.30
2017-06-21T23:12:04.721Z,21.30
2017-06-21T23:14:32.235Z,21.30
2017-06-21T23:16:59.756Z,21.20
2017-06-21T23:19:27.232Z,21.00
2017-06-21T23:21:54.770Z,20.80
2017-06-21T23:24:22.300Z,20.60
2017-06-21T23:26:49.827Z,20.60
2017-06-21T23:29:17.352Z,20.50
2017-06-21T23:31:44.853Z,20.50
2017-06-21T23:34:12.359Z,20.60
2017-06-21T23:36:39.849Z,20.60
2017-06-21T23:39:07.342Z,20.50
2017-06-21T23:41:34.844Z,20.50
2017-06-21T23:44:02.344Z,20.50
2017-06-21T23:46:29.863Z,20.50
2017-06-21T23:48:57.362Z,20.50
2017-06-21T23:51:24.887Z,20.40
2017-06-21T23:53:52.398Z,20.40
2017-06-21T23:56:19.890Z,20.30
2017-06-21T23:58:48.369Z,20.30
